createdAt,value
2018-01-11T00:00:25.230Z,995.53
2018-01-11T00:01:35.023Z,995.56
2018-01-11T00:02:44.816Z,995.55
2018-01-11T00:03:55.291Z,995.54
2018-01-11T00:05:05.344Z,995.56
2018-01-11T00:06:15.421Z,995.57
2018-01-11T00:07:25.462Z,995.59
2018-01-11T00:08:35.492Z,995.54
2018-01-11T00:09:45.274Z,995.57
2018-01-11T00:10:54.805Z,995.54
2018-01-11T00:12:04.597Z,995.56
2018-01-11T00:13:14.409Z,995.57
2018-01-11T00:14:24.256Z,995.58
2018-01-11T00:15:34.300Z,995.56
2018-01-11T00:16:44.091Z,995.55
2018-01-11T00:17:54.137Z,995.56
2018-01-11T00:19:04.179Z,995.57
2018-01-11T00:20:14.244Z,995.56
2018-01-11T00:21:24.307Z,995.58
2018-01-11T00:22:34.367Z,995.54
2018-01-11T00:23:44.420Z,995.54
2018-01-11T00:24:54.318Z,995.54
2018-01-11T00:26:04.430Z,995.53
2018-01-11T00:27:14.200Z,995.53
2018-01-11T00:28:24.251Z,995.55
2018-01-11T00:29:34.314Z,995.52
2018-01-11T00:30:44.362Z,995.56
2018-01-11T00:31:54.427Z,995.54
2018-01-11T00:33:04.484Z,995.57
2018-01-11T00:34:14.551Z,995.53
2018-01-11T00:35:24.602Z,995.55
2018-01-11T00:36:34.702Z,995.5
2018-01-11T00:37:44.772Z,995.55
2018-01-11T00:38:54.832Z,995.53
2018-01-11T00:40:04.924Z,995.52
2018-01-11T00:41:14.204Z,995.53
2018-01-11T00:42:24.261Z,995.49
2018-01-11T00:43:34.053Z,995.51
2018-01-11T00:44:44.097Z,995.53
2018-01-11T00:45:54.139Z,995.54
2018-01-11T00:47:04.181Z,995.52
2018-01-11T00:48:14.237Z,995.53
2018-01-11T00:49:24.298Z,995.52
2018-01-11T00:50:34.374Z,995.56
2018-01-11T00:51:44.431Z,995.58
2018-01-11T00:52:54.473Z,995.62
2018-01-11T00:54:04.527Z,995.64
2018-01-11T00:55:14.627Z,995.67
2018-01-11T00:56:24.428Z,995.64
2018-01-11T00:57:34.515Z,995.67
2018-01-11T00:58:44.320Z,995.68
2018-01-11T00:59:54.387Z,995.71
2018-01-11T01:01:04.497Z,995.69
2018-01-11T01:02:14.280Z,995.67
2018-01-11T01:03:24.344Z,995.71
2018-01-11T01:04:33.887Z,995.66
2018-01-11T01:05:43.937Z,995.68
2018-01-11T01:06:54.038Z,995.69
2018-01-11T01:08:03.887Z,995.71
2018-01-11T01:09:13.925Z,995.73
2018-01-11T01:10:23.987Z,995.74
2018-01-11T01:11:34.048Z,995.78
2018-01-11T01:12:44.100Z,995.76
2018-01-11T01:13:53.912Z,995.78
2018-01-11T01:15:03.952Z,995.78
2018-01-11T01:16:14.009Z,995.77
2018-01-11T01:17:24.061Z,995.78
2018-01-11T01:18:34.202Z,995.78
2018-01-11T01:19:44.253Z,995.78
2018-01-11T01:20:53.779Z,995.81
2018-01-11T01:22:03.583Z,995.8
2018-01-11T01:23:13.634Z,995.81
2018-01-11T01:24:23.483Z,995.8
2018-01-11T01:25:33.533Z,995.82
2018-01-11T01:26:43.576Z,995.78
2018-01-11T01:27:53.634Z,995.82
2018-01-11T01:29:03.694Z,995.82
2018-01-11T01:30:13.755Z,995.81
2018-01-11T01:31:23.552Z,995.78
2018-01-11T01:32:33.348Z,995.78
2018-01-11T01:33:42.885Z,995.77
2018-01-11T01:34:52.928Z,995.77
2018-01-11T01:36:02.983Z,995.77
2018-01-11T01:37:13.045Z,995.79
2018-01-11T01:38:23.092Z,995.72
2018-01-11T01:39:32.881Z,995.71
2018-01-11T01:40:42.951Z,995.69
2018-01-11T01:41:53.002Z,995.7
2018-01-11T01:43:03.074Z,995.67
2018-01-11T01:44:12.894Z,995.66
2018-01-11T01:45:22.944Z,995.64
2018-01-11T01:46:33.006Z,995.61
2018-01-11T01:47:43.081Z,995.62
2018-01-11T01:48:53.128Z,995.62
2018-01-11T01:50:02.664Z,995.62
2018-01-11T01:51:12.727Z,995.59
2018-01-11T01:52:22.758Z,995.62
2018-01-11T01:53:32.559Z,995.68
2018-01-11T01:54:42.331Z,995.69
2018-01-11T01:55:52.448Z,995.72
2018-01-11T01:57:02.503Z,995.75
2018-01-11T01:58:12.078Z,995.76
2018-01-11T01:59:22.189Z,995.78
2018-01-11T02:00:32.240Z,995.77
2018-01-11T02:01:42.091Z,995.75
2018-01-11T02:02:52.154Z,995.72
2018-01-11T02:04:02.205Z,995.75
2018-01-11T02:05:12.311Z,995.72
2018-01-11T02:06:22.364Z,995.75
2018-01-11T02:07:32.412Z,995.74
2018-01-11T02:08:42.471Z,995.72
2018-01-11T02:09:52.520Z,995.74
2018-01-11T02:11:02.311Z,995.7
2018-01-11T02:12:12.114Z,995.74
2018-01-11T02:13:21.913Z,995.64
2018-01-11T02:14:31.961Z,995.68
2018-01-11T02:15:41.744Z,995.66
2018-01-11T02:16:51.547Z,995.64
2018-01-11T02:18:01.347Z,995.6
2018-01-11T02:19:11.408Z,995.62
2018-01-11T02:20:21.451Z,995.62
2018-01-11T02:21:31.497Z,995.61
2018-01-11T02:22:41.339Z,995.62
2018-01-11T02:23:51.378Z,995.62
2018-01-11T02:25:01.449Z,995.62
2018-01-11T02:26:11.490Z,995.64
2018-01-11T02:27:21.547Z,995.65
2018-01-11T02:28:31.604Z,995.64
2018-01-11T02:29:41.134Z,995.61
2018-01-11T02:30:51.175Z,995.63
2018-01-11T02:32:01.307Z,995.58
2018-01-11T02:33:11.377Z,995.56
2018-01-11T02:34:21.187Z,995.56
2018-01-11T02:35:31.235Z,995.55
2018-01-11T02:36:41.177Z,995.56
2018-01-11T02:37:51.243Z,995.55
2018-01-11T02:39:01.350Z,995.51
2018-01-11T02:40:11.412Z,995.53
2018-01-11T02:41:21.487Z,995.54
2018-01-11T02:42:31.288Z,995.56
2018-01-11T02:43:41.347Z,995.55
2018-01-11T02:44:50.882Z,995.5
2018-01-11T02:46:00.676Z,995.47
2018-01-11T02:47:10.286Z,995.51
2018-01-11T02:48:20.348Z,995.43
2018-01-11T02:49:30.417Z,995.47
2018-01-11T02:50:40.469Z,995.49
2018-01-11T02:51:50.572Z,995.47
2018-01-11T02:53:00.359Z,995.54
2018-01-11T02:54:10.174Z,995.59
2018-01-11T02:55:20.233Z,995.61
2018-01-11T02:56:30.289Z,995.63
2018-01-11T02:57:40.401Z,995.6
2018-01-11T02:58:50.449Z,995.57
2018-01-11T03:00:00.529Z,995.6
2018-01-11T03:01:10.593Z,995.63
2018-01-11T03:02:21.981Z,995.62
2018-01-11T03:34:11.111Z,995.54
2018-01-11T03:35:21.145Z,995.53
2018-01-11T03:36:31.186Z,995.55
2018-01-11T03:37:41.243Z,995.54
2018-01-11T03:38:51.283Z,995.54
2018-01-11T03:40:01.120Z,995.55
2018-01-11T03:41:11.157Z,995.49
2018-01-11T03:42:20.938Z,995.51
2018-01-11T03:43:30.996Z,995.53
2018-01-11T03:44:41.034Z,995.56
2018-01-11T03:45:51.078Z,995.56
2018-01-11T03:47:01.130Z,995.55
2018-01-11T03:48:11.186Z,995.48
2018-01-11T03:49:21.229Z,995.49
2018-01-11T03:50:31.290Z,995.47
2018-01-11T03:51:41.075Z,995.46
2018-01-11T03:52:50.586Z,995.49
2018-01-11T03:54:00.626Z,995.48
2018-01-11T03:55:10.423Z,995.44
2018-01-11T03:56:20.485Z,995.49
2018-01-11T03:57:29.541Z,995.5
2018-01-11T03:58:39.067Z,995.52
2018-01-11T03:59:48.857Z,995.52
2018-01-11T04:00:58.645Z,995.53
2018-01-11T04:02:08.706Z,995.57
2018-01-11T04:03:18.854Z,995.56
2018-01-11T04:04:29.504Z,995.61
2018-01-11T04:05:39.569Z,995.6
2018-01-11T04:06:49.384Z,995.57
2018-01-11T04:08:00.149Z,995.56
2018-01-11T04:09:09.739Z,995.58
2018-01-11T04:10:19.837Z,995.62
2018-01-11T04:11:29.883Z,995.58
2018-01-11T04:12:39.928Z,995.56
2018-01-11T04:13:49.970Z,995.55
2018-01-11T04:14:59.813Z,995.52
2018-01-11T04:16:09.354Z,995.56
2018-01-11T04:17:19.404Z,995.52
2018-01-11T04:18:29.464Z,995.53
2018-01-11T04:19:39.541Z,995.52
2018-01-11T04:20:49.412Z,995.5
2018-01-11T04:21:59.453Z,995.47
2018-01-11T04:23:09.504Z,995.48
2018-01-11T04:24:19.560Z,995.48
2018-01-11T04:25:29.609Z,995.48
2018-01-11T04:26:39.647Z,995.48
2018-01-11T04:27:49.707Z,995.5
2018-01-11T04:28:59.749Z,995.49
2018-01-11T04:30:09.804Z,995.48
2018-01-11T04:31:19.848Z,995.53
2018-01-11T04:32:30.129Z,995.53
2018-01-11T04:33:40.180Z,995.56
2018-01-11T04:34:50.241Z,995.53
2018-01-11T04:36:00.314Z,995.54
2018-01-11T04:37:10.368Z,995.55
2018-01-11T04:38:20.170Z,995.54
2018-01-11T04:39:29.964Z,995.57
2018-01-11T04:40:40.006Z,995.6
2018-01-11T04:41:50.057Z,995.61
2018-01-11T04:42:59.586Z,995.62
2018-01-11T04:44:09.381Z,995.57
2018-01-11T04:45:19.168Z,995.62
2018-01-11T04:46:28.970Z,995.63
2018-01-11T04:47:39.017Z,995.62
2018-01-11T04:48:49.073Z,995.64
2018-01-11T04:49:59.137Z,995.64
2018-01-11T04:51:09.264Z,995.67
2018-01-11T04:52:19.329Z,995.68
2018-01-11T04:53:29.390Z,995.71
2018-01-11T04:54:39.184Z,995.68
2018-01-11T04:55:48.770Z,995.75
2018-01-11T04:56:58.817Z,995.76
2018-01-11T04:58:08.627Z,995.78
2018-01-11T04:59:18.699Z,995.81
2018-01-11T05:00:28.761Z,995.82
2018-01-11T05:01:38.836Z,995.75
2018-01-11T05:02:48.897Z,995.77
2018-01-11T05:03:58.967Z,995.82
2018-01-11T05:05:09.038Z,995.79
2018-01-11T05:06:19.084Z,995.78
2018-01-11T05:07:28.930Z,995.83
2018-01-11T05:08:38.707Z,995.79
2018-01-11T05:09:48.486Z,995.81
2018-01-11T05:10:58.265Z,995.84
2018-01-11T05:12:08.431Z,995.83
2018-01-11T05:13:18.522Z,995.84
2018-01-11T05:14:28.647Z,995.85
2018-01-11T05:15:38.683Z,995.81
2018-01-11T05:16:48.759Z,995.85
2018-01-11T05:17:58.577Z,995.91
2018-01-11T05:19:08.646Z,995.87
2018-01-11T05:20:18.491Z,995.87
2018-01-11T05:21:28.268Z,995.88
2018-01-11T05:22:38.340Z,995.88
2018-01-11T05:23:48.378Z,995.86
2018-01-11T05:24:58.425Z,995.87
2018-01-11T05:26:08.219Z,995.86
2018-01-11T05:27:18.026Z,995.85
2018-01-11T05:28:28.090Z,995.84
2018-01-11T05:29:38.146Z,995.87
2018-01-11T05:30:48.201Z,995.86
2018-01-11T05:31:58.262Z,995.85
2018-01-11T05:33:08.340Z,995.94
2018-01-11T05:34:18.143Z,995.91
2018-01-11T05:35:28.199Z,995.93
2018-01-11T05:36:38.278Z,995.96
2018-01-11T05:37:48.323Z,995.94
2018-01-11T05:38:58.384Z,995.95
2018-01-11T05:40:08.436Z,995.94
2018-01-11T05:41:18.500Z,995.97
2018-01-11T05:42:28.546Z,996
2018-01-11T05:43:38.607Z,995.96
2018-01-11T05:44:48.138Z,996
2018-01-11T05:45:58.180Z,996.03
2018-01-11T05:47:07.980Z,996.08
2018-01-11T05:48:18.033Z,996.09
2018-01-11T05:49:28.146Z,996.09
2018-01-11T05:50:38.006Z,996.1
2018-01-11T05:51:47.532Z,996.08
2018-01-11T05:52:57.590Z,996.07
2018-01-11T05:54:07.661Z,996.08
2018-01-11T05:55:17.450Z,996.12
2018-01-11T05:56:27.500Z,996.11
2018-01-11T05:57:37.558Z,996.16
2018-01-11T05:58:47.371Z,996.15
2018-01-11T05:59:57.421Z,996.15
2018-01-11T06:01:07.225Z,996.14
2018-01-11T06:02:17.285Z,996.15
2018-01-11T06:03:27.336Z,996.18
2018-01-11T06:04:37.438Z,996.16
2018-01-11T06:05:47.234Z,996.14
2018-01-11T06:06:57.288Z,996.2
2018-01-11T06:08:07.343Z,996.16
2018-01-11T06:09:17.387Z,996.16
2018-01-11T06:10:27.191Z,996.18
2018-01-11T06:11:37.254Z,996.17
2018-01-11T06:12:47.319Z,996.18
2018-01-11T06:13:57.398Z,996.21
2018-01-11T06:15:07.463Z,996.23
2018-01-11T06:16:17.519Z,996.15
2018-01-11T06:17:27.577Z,996.17
2018-01-11T06:18:37.625Z,996.19
2018-01-11T06:19:47.422Z,996.17
2018-01-11T06:20:57.522Z,996.18
2018-01-11T06:22:07.571Z,996.21
2018-01-11T06:23:17.375Z,996.15
2018-01-11T06:24:27.533Z,996.18
2018-01-11T06:25:37.326Z,996.12
2018-01-11T06:26:47.396Z,996.18
2018-01-11T06:27:57.441Z,996.16
2018-01-11T06:29:07.497Z,996.16
2018-01-11T06:30:17.652Z,996.14
2018-01-11T06:31:27.711Z,996.11
2018-01-11T06:32:37.493Z,996.14
2018-01-11T06:33:47.552Z,996.08
2018-01-11T06:34:57.613Z,996.11
2018-01-11T06:36:07.420Z,996.08
2018-01-11T06:37:17.222Z,996.12
2018-01-11T06:38:27.021Z,996.15
2018-01-11T06:39:36.841Z,996.16
2018-01-11T06:40:46.375Z,996.17
2018-01-11T06:41:56.425Z,996.21
2018-01-11T06:43:06.485Z,996.19
2018-01-11T06:44:16.541Z,996.22
2018-01-11T06:45:26.600Z,996.27
2018-01-11T06:46:36.655Z,996.25
2018-01-11T06:47:46.500Z,996.27
2018-01-11T06:48:56.305Z,996.29
2018-01-11T06:50:06.097Z,996.34
2018-01-11T06:51:16.151Z,996.33
2018-01-11T06:52:26.243Z,996.36
2018-01-11T06:53:36.041Z,996.38
2018-01-11T06:54:45.820Z,996.39
2018-01-11T06:55:55.874Z,996.34
2018-01-11T06:57:05.931Z,996.37
2018-01-11T06:58:16.033Z,996.3
2018-01-11T06:59:26.081Z,996.3
2018-01-11T07:00:35.887Z,996.25
2018-01-11T07:01:45.727Z,996.26
2018-01-11T07:02:55.780Z,996.29
2018-01-11T07:04:05.601Z,996.25
2018-01-11T07:05:15.447Z,996.26
2018-01-11T07:06:24.961Z,996.25
2018-01-11T07:07:35.032Z,996.26
2018-01-11T07:08:45.098Z,996.25
2018-01-11T07:09:55.166Z,996.28
2018-01-11T07:11:04.970Z,996.26
2018-01-11T07:12:15.042Z,996.31
2018-01-11T07:13:25.112Z,996.27
2018-01-11T07:14:34.996Z,996.26
2018-01-11T07:15:45.061Z,996.24
2018-01-11T07:16:55.168Z,996.25
2018-01-11T07:18:04.952Z,996.29
2018-01-11T07:19:14.980Z,996.31
2018-01-11T07:20:25.072Z,996.3
2018-01-11T07:21:35.221Z,996.33
2018-01-11T07:22:45.274Z,996.31
2018-01-11T07:23:55.063Z,996.36
2018-01-11T07:25:04.849Z,996.37
2018-01-11T07:26:14.901Z,996.39
2018-01-11T07:27:24.963Z,996.36
2018-01-11T07:28:35.017Z,996.43
2018-01-11T07:29:45.183Z,996.4
2018-01-11T07:30:55.245Z,996.44
2018-01-11T07:32:05.326Z,996.46
2018-01-11T07:33:15.401Z,996.49
2018-01-11T07:34:25.512Z,996.55
2018-01-11T07:35:35.310Z,996.59
2018-01-11T07:36:45.101Z,996.62
2018-01-11T07:37:55.140Z,996.6
2018-01-11T07:39:04.917Z,996.63
2018-01-11T07:40:14.964Z,996.64
2018-01-11T07:41:25.047Z,996.62
2018-01-11T07:42:34.847Z,996.64
2018-01-11T07:43:44.644Z,996.67
2018-01-11T07:44:54.703Z,996.7
2018-01-11T07:46:04.859Z,996.71
2018-01-11T07:47:14.923Z,996.77
2018-01-11T07:48:24.720Z,996.82
2018-01-11T07:49:34.576Z,996.83
2018-01-11T07:50:44.621Z,996.89
2018-01-11T07:51:54.408Z,996.95
2018-01-11T07:53:04.196Z,996.91
2018-01-11T07:54:14.259Z,996.84
2018-01-11T07:55:24.350Z,996.84
2018-01-11T07:56:34.462Z,996.81
2018-01-11T07:57:44.514Z,996.88
2018-01-11T07:58:54.560Z,996.87
2018-01-11T08:00:04.618Z,996.92
2018-01-11T08:01:14.687Z,996.86
2018-01-11T08:02:24.482Z,996.85
2018-01-11T08:03:34.546Z,996.82
2018-01-11T08:04:44.334Z,996.86
2018-01-11T08:05:54.121Z,996.89
2018-01-11T08:07:04.202Z,996.9
2018-01-11T08:08:14.297Z,996.88
2018-01-11T08:09:24.364Z,996.9
2018-01-11T08:10:34.411Z,996.91
2018-01-11T08:11:44.455Z,996.91
2018-01-11T08:12:54.517Z,996.97
2018-01-11T08:14:04.574Z,996.95
2018-01-11T08:15:14.624Z,996.94
2018-01-11T08:16:24.150Z,996.91
2018-01-11T08:17:34.185Z,996.92
2018-01-11T08:18:44.233Z,996.95
2018-01-11T08:19:54.021Z,996.94
2018-01-11T08:21:04.075Z,996.96
2018-01-11T08:22:13.605Z,996.95
2018-01-11T08:23:23.432Z,996.94
2018-01-11T08:24:33.222Z,996.89
2018-01-11T08:25:43.832Z,996.85
2018-01-11T08:26:53.627Z,996.84
2018-01-11T08:28:03.745Z,996.83
2018-01-11T08:29:13.552Z,996.84
2018-01-11T08:30:23.606Z,996.91
2018-01-11T08:31:33.668Z,996.91
2018-01-11T08:32:43.739Z,996.86
2018-01-11T08:33:53.793Z,996.89
2018-01-11T08:35:03.909Z,996.91
2018-01-11T08:36:13.953Z,996.89
2018-01-11T08:37:25.114Z,996.97
2018-01-11T08:38:35.160Z,997.09
2018-01-11T08:39:45.214Z,997.19
2018-01-11T08:40:55.273Z,997.16
2018-01-11T08:42:05.324Z,997.08
2018-01-11T08:43:15.376Z,997.01
2018-01-11T08:44:25.173Z,997.01
2018-01-11T08:45:35.237Z,997.02
2018-01-11T08:46:45.341Z,997.13
2018-01-11T08:47:55.138Z,997.18
2018-01-11T08:49:05.202Z,997.25
2018-01-11T08:50:14.999Z,997.28
2018-01-11T08:51:24.542Z,997.18
2018-01-11T08:52:34.343Z,997.14
2018-01-11T08:53:44.133Z,997.06
2018-01-11T08:54:53.676Z,997.1
2018-01-11T08:56:03.735Z,997.13
2018-01-11T08:57:13.806Z,997.28
2018-01-11T08:58:23.939Z,997.33
2018-01-11T08:59:34.027Z,997.34
2018-01-11T09:00:44.082Z,997.29
2018-01-11T09:01:54.155Z,997.26
2018-01-11T09:03:04.207Z,997.23
2018-01-11T09:04:14.135Z,997.23
2018-01-11T09:05:24.181Z,997.27
2018-01-11T09:06:34.241Z,997.27
2018-01-11T09:07:44.379Z,997.29
2018-01-11T09:08:54.197Z,997.29
2018-01-11T09:10:04.321Z,997.3
2018-01-11T09:11:14.397Z,997.29
2018-01-11T09:12:24.489Z,997.33
2018-01-11T09:13:34.570Z,997.34
2018-01-11T09:14:44.368Z,997.37
2018-01-11T09:15:53.912Z,997.31
2018-01-11T09:17:03.731Z,997.35
2018-01-11T09:18:13.826Z,997.27
2018-01-11T09:19:23.904Z,997.28
2018-01-11T09:20:33.710Z,997.26
2018-01-11T09:21:43.773Z,997.3
2018-01-11T09:22:53.852Z,997.24
2018-01-11T09:24:03.408Z,997.25
2018-01-11T09:25:13.471Z,997.23
2018-01-11T09:26:23.279Z,997.24
2018-01-11T09:27:33.087Z,997.19
2018-01-11T09:28:43.236Z,997.22
2018-01-11T09:29:53.314Z,997.2
2018-01-11T09:31:03.144Z,997.22
2018-01-11T09:32:13.216Z,997.19
2018-01-11T09:33:23.286Z,997.22
2018-01-11T09:34:33.458Z,997.25
2018-01-11T09:35:44.279Z,997.26
2018-01-11T09:36:54.364Z,997.19
2018-01-11T09:38:04.445Z,997.18
2018-01-11T09:39:15.346Z,997.2
2018-01-11T09:40:25.469Z,997.15
2018-01-11T09:41:36.353Z,997.14
2018-01-11T09:42:47.479Z,997.13
2018-01-11T09:43:57.273Z,997.11
2018-01-11T09:45:07.347Z,997.09
2018-01-11T09:46:17.535Z,997.11
2018-01-11T09:47:27.628Z,997.1
2018-01-11T09:48:37.441Z,997.09
2018-01-11T09:49:47.516Z,997.08
2018-01-11T09:50:57.074Z,997.06
2018-01-11T09:52:07.149Z,997.01
2018-01-11T09:53:17.211Z,997.02
2018-01-11T09:54:27.287Z,997.04
2018-01-11T09:55:37.373Z,997.03
2018-01-11T09:56:47.779Z,997.03
2018-01-11T09:57:58.882Z,997.04
2018-01-11T09:59:10.499Z,997
2018-01-11T10:00:20.597Z,997.01
2018-01-11T10:01:30.664Z,996.99
2018-01-11T10:02:40.731Z,996.96
2018-01-11T10:03:50.815Z,996.96
2018-01-11T10:05:00.901Z,997.02
2018-01-11T10:06:10.736Z,996.88
2018-01-11T10:07:20.831Z,996.92
2018-01-11T10:08:30.655Z,996.92
2018-01-11T10:09:40.748Z,996.92
2018-01-11T10:10:50.846Z,996.91
2018-01-11T10:12:02.068Z,996.89
2018-01-11T10:13:11.633Z,996.89
2018-01-11T10:14:21.452Z,996.96
2018-01-11T10:15:31.634Z,996.91
2018-01-11T10:16:41.717Z,996.9
2018-01-11T10:17:52.038Z,996.92
2018-01-11T10:19:01.594Z,996.89
2018-01-11T10:20:11.415Z,996.9
2018-01-11T10:21:21.488Z,996.86
2018-01-11T10:22:31.545Z,996.89
2018-01-11T10:23:41.649Z,996.85
2018-01-11T10:24:51.465Z,996.86
2018-01-11T10:26:01.537Z,996.91
2018-01-11T10:27:11.355Z,996.88
2018-01-11T10:28:21.429Z,996.91
2018-01-11T10:29:31.306Z,996.89
2018-01-11T10:30:41.123Z,996.89
2018-01-11T10:31:51.218Z,996.91
2018-01-11T10:33:01.364Z,996.89
2018-01-11T10:34:11.519Z,996.92
2018-01-11T10:35:21.363Z,996.92
2018-01-11T10:36:31.460Z,996.95
2018-01-11T10:37:41.289Z,996.9
2018-01-11T10:38:51.107Z,996.91
2018-01-11T10:40:01.223Z,996.92
2018-01-11T10:41:11.043Z,996.94
2018-01-11T10:42:21.123Z,996.89
2018-01-11T10:43:31.183Z,996.87
2018-01-11T10:44:40.996Z,996.9
2018-01-11T10:45:51.083Z,996.89
2018-01-11T10:47:00.921Z,996.86
2018-01-11T10:48:11.097Z,996.87
2018-01-11T10:49:21.193Z,996.88
2018-01-11T10:50:31.283Z,996.87
2018-01-11T10:51:41.382Z,996.86
2018-01-11T10:52:51.432Z,996.84
2018-01-11T10:54:01.507Z,996.89
2018-01-11T10:55:11.592Z,996.85
2018-01-11T10:56:21.422Z,996.87
2018-01-11T10:57:31.523Z,996.83
2018-01-11T10:58:41.322Z,996.87
2018-01-11T10:59:50.940Z,996.87
2018-01-11T11:01:00.925Z,996.86
2018-01-11T11:02:10.482Z,996.9
2018-01-11T11:03:20.057Z,996.87
2018-01-11T11:04:30.139Z,996.89
2018-01-11T11:05:39.956Z,996.88
2018-01-11T11:06:50.048Z,996.88
2018-01-11T11:08:00.122Z,996.85
2018-01-11T11:09:10.042Z,996.85
2018-01-11T11:10:20.100Z,996.84
2018-01-11T11:11:30.486Z,996.84
2018-01-11T11:12:40.568Z,996.81
2018-01-11T11:13:50.370Z,996.8
2018-01-11T11:15:00.162Z,996.79
2018-01-11T11:16:10.252Z,996.81
2018-01-11T11:17:21.487Z,996.82
2018-01-11T11:18:31.544Z,996.79
2018-01-11T11:19:41.625Z,996.81
2018-01-11T11:20:51.703Z,996.83
2018-01-11T11:22:01.807Z,996.85
2018-01-11T11:23:11.966Z,996.86
2018-01-11T11:24:22.030Z,996.86
2018-01-11T11:25:31.848Z,996.81
2018-01-11T11:26:41.919Z,996.82
2018-01-11T11:27:51.994Z,996.82
2018-01-11T11:29:02.162Z,996.83
2018-01-11T11:30:12.219Z,996.84
2018-01-11T11:31:22.578Z,996.81
2018-01-11T11:32:32.404Z,996.82
2018-01-11T11:33:42.208Z,996.82
2018-01-11T11:34:52.030Z,996.83
2018-01-11T11:36:02.742Z,996.8
2018-01-11T11:37:12.620Z,996.81
2018-01-11T11:38:23.539Z,996.8
2018-01-11T11:39:33.357Z,996.76
2018-01-11T11:40:42.943Z,996.74
2018-01-11T11:41:52.538Z,996.75
2018-01-11T11:43:02.347Z,996.75
2018-01-11T11:44:12.411Z,996.79
2018-01-11T11:45:22.481Z,996.75
2018-01-11T11:46:32.384Z,996.76
2018-01-11T11:47:42.476Z,996.75
2018-01-11T11:48:52.556Z,996.71
2018-01-11T11:50:02.646Z,996.68
2018-01-11T11:51:12.716Z,996.68
2018-01-11T11:52:23.733Z,996.78
2018-01-11T11:53:34.347Z,996.77
2018-01-11T11:54:44.172Z,996.79
2018-01-11T11:55:53.981Z,996.81
2018-01-11T11:57:04.080Z,996.78
2018-01-11T11:58:14.209Z,996.79
2018-01-11T11:59:24.286Z,996.82
2018-01-11T12:00:34.382Z,996.79
2018-01-11T12:01:44.455Z,996.79
2018-01-11T12:02:54.534Z,996.82
2018-01-11T12:04:04.617Z,996.86
2018-01-11T12:05:14.690Z,996.86
2018-01-11T12:06:25.064Z,996.83
2018-01-11T12:07:35.140Z,996.84
2018-01-11T12:08:45.233Z,996.83
2018-01-11T12:09:55.322Z,996.85
2018-01-11T12:11:05.402Z,996.86
2018-01-11T12:12:15.226Z,996.83
2018-01-11T12:13:25.033Z,996.87
2018-01-11T12:14:35.116Z,996.83
2018-01-11T12:15:44.970Z,996.81
2018-01-11T12:16:54.798Z,996.84
2018-01-11T12:18:04.880Z,996.87
2018-01-11T12:19:14.976Z,996.87
2018-01-11T12:20:24.842Z,996.92
2018-01-11T12:21:34.925Z,996.87
2018-01-11T12:22:44.731Z,996.92
2018-01-11T12:23:54.274Z,996.95
2018-01-11T12:25:03.821Z,996.95
2018-01-11T12:26:13.935Z,996.95
2018-01-11T12:27:24.047Z,996.93
2018-01-11T12:28:33.838Z,996.94
2018-01-11T12:29:43.921Z,996.97
2018-01-11T12:30:54.114Z,996.97
2018-01-11T12:32:04.297Z,996.97
2018-01-11T12:33:14.108Z,997.01
2018-01-11T12:34:23.924Z,997
2018-01-11T12:35:33.992Z,997
2018-01-11T12:36:43.803Z,997.02
2018-01-11T12:37:53.670Z,997
2018-01-11T12:39:03.738Z,997
2018-01-11T12:40:13.815Z,997.03
2018-01-11T12:41:23.622Z,997.03
2018-01-11T12:42:33.745Z,997.03
2018-01-11T12:43:43.826Z,997.03
2018-01-11T12:44:53.889Z,997.06
2018-01-11T12:46:03.715Z,997.04
2018-01-11T12:47:13.793Z,997.05
2018-01-11T12:48:23.084Z,997.07
2018-01-11T12:49:32.878Z,997.04
2018-01-11T12:50:42.949Z,997.08
2018-01-11T12:51:53.030Z,997.08
2018-01-11T12:53:03.129Z,997.06
2018-01-11T12:54:12.931Z,997.06
2018-01-11T12:55:23.018Z,997.1
2018-01-11T12:56:33.133Z,997.14
2018-01-11T12:57:42.950Z,997.14
2018-01-11T12:58:52.773Z,997.11
2018-01-11T13:00:02.601Z,997.08
2018-01-11T13:01:12.705Z,997.08
2018-01-11T13:02:23.452Z,997.09
2018-01-11T13:03:33.541Z,997.14
2018-01-11T13:04:43.356Z,997.13
2018-01-11T13:05:53.161Z,997.11
2018-01-11T13:07:03.311Z,997.08
2018-01-11T13:08:14.387Z,997.1
2018-01-11T13:09:25.148Z,997.12
2018-01-11T13:10:35.215Z,997.12
2018-01-11T13:11:45.298Z,997.13
2018-01-11T13:12:55.262Z,997.12
2018-01-11T13:14:05.342Z,997.1
2018-01-11T13:15:15.433Z,997.1
2018-01-11T13:16:25.518Z,997.15
2018-01-11T13:17:36.794Z,997.13
2018-01-11T13:18:46.612Z,997.1
2018-01-11T13:19:56.524Z,997.11
2018-01-11T13:21:06.329Z,997.11
2018-01-11T13:22:16.398Z,997.12
2018-01-11T13:23:26.474Z,997.13
2018-01-11T13:24:36.350Z,997.15
2018-01-11T13:25:46.660Z,997.13
2018-01-11T13:26:57.994Z,997.15
2018-01-11T13:28:08.062Z,997.18
2018-01-11T13:29:18.252Z,997.21
2018-01-11T13:30:28.320Z,997.21
2018-01-11T13:31:38.418Z,997.24
2018-01-11T13:32:48.548Z,997.24
2018-01-11T13:33:58.636Z,997.25
2018-01-11T13:35:08.727Z,997.24
2018-01-11T13:36:18.813Z,997.3
2018-01-11T13:37:32.231Z,997.29
2018-01-11T13:38:42.374Z,997.28
2018-01-11T13:39:52.538Z,997.27
2018-01-11T13:41:02.631Z,997.27
2018-01-11T13:42:12.215Z,997.32
2018-01-11T13:43:23.188Z,997.27
2018-01-11T13:44:33.303Z,997.3
2018-01-11T13:45:43.392Z,997.32
2018-01-11T13:46:53.472Z,997.31
2018-01-11T13:48:03.544Z,997.33
2018-01-11T13:49:13.635Z,997.33
2018-01-11T13:50:23.449Z,997.3
2018-01-11T13:51:33.557Z,997.35
2018-01-11T13:52:43.374Z,997.37
2018-01-11T13:53:53.439Z,997.36
2018-01-11T13:55:03.519Z,997.4
2018-01-11T13:56:14.692Z,997.4
2018-01-11T13:57:24.495Z,997.38
2018-01-11T13:58:36.163Z,997.43
2018-01-11T13:59:47.239Z,997.41
2018-01-11T14:00:57.316Z,997.45
2018-01-11T14:02:07.410Z,997.41
2018-01-11T14:03:17.492Z,997.47
2018-01-11T14:04:28.749Z,997.46
2018-01-11T14:05:38.831Z,997.45
2018-01-11T14:06:48.887Z,997.49
2018-01-11T14:07:59.021Z,997.48
2018-01-11T14:09:09.125Z,997.49
2018-01-11T14:10:20.082Z,997.56
2018-01-11T14:11:29.903Z,997.52
2018-01-11T14:12:40.008Z,997.54
2018-01-11T14:13:49.922Z,997.57
2018-01-11T14:15:00.009Z,997.58
2018-01-11T14:16:10.090Z,997.55
2018-01-11T14:17:20.193Z,997.58
2018-01-11T14:18:30.348Z,997.59
2018-01-11T14:19:40.458Z,997.6
2018-01-11T14:20:50.573Z,997.59
2018-01-11T14:22:00.858Z,997.62
2018-01-11T14:23:10.943Z,997.59
2018-01-11T14:24:21.030Z,997.64
2018-01-11T14:25:30.895Z,997.67
2018-01-11T14:26:40.706Z,997.68
2018-01-11T14:27:50.834Z,997.68
2018-01-11T14:29:00.911Z,997.71
2018-01-11T14:30:10.725Z,997.73
2018-01-11T14:31:20.530Z,997.76
2018-01-11T14:32:31.712Z,997.73
2018-01-11T14:33:41.803Z,997.75
2018-01-11T14:34:52.542Z,997.76
2018-01-11T14:36:02.363Z,997.75
2018-01-11T14:37:12.220Z,997.7
2018-01-11T14:38:22.305Z,997.75
2018-01-11T14:39:32.410Z,997.77
2018-01-11T14:40:43.509Z,997.82
2018-01-11T14:41:53.601Z,997.79
2018-01-11T14:43:03.430Z,997.82
2018-01-11T14:44:13.512Z,997.86
2018-01-11T14:45:23.642Z,997.84
2018-01-11T14:46:34.940Z,997.86
2018-01-11T14:47:46.512Z,997.86
2018-01-11T14:48:56.941Z,997.87
2018-01-11T14:50:07.014Z,997.89
2018-01-11T14:51:17.717Z,997.9
2018-01-11T14:52:27.315Z,997.94
2018-01-11T15:02:09.847Z,997.94
2018-01-11T15:03:19.926Z,997.92
2018-01-11T15:04:30.042Z,998.01
2018-01-11T15:05:40.121Z,998.01
2018-01-11T15:06:49.969Z,998.05
2018-01-11T15:08:02.137Z,998.03
2018-01-11T15:09:12.193Z,998.06
2018-01-11T15:10:22.307Z,998.03
2018-01-11T15:11:32.107Z,998.09
2018-01-11T15:12:41.989Z,998.08
2018-01-11T15:13:52.060Z,998.13
2018-01-11T15:15:02.147Z,998.15